sensor_id;sensor_type;location;lat;lon;timestamp;P1;durP1;ratioP1;P2;durP2;ratioP2
5543;SDS011;2795;47.652;13.128;2023-04-19T00:01:15;9.20;;;4.67;;
5543;SDS011;2795;47.652;13.128;2023-04-19T00:03:41;15.20;;;5.60;;
5543;SDS011;2795;47.652;13.128;2023-04-19T00:06:09;10.63;;;4.60;;
5543;SDS011;2795;47.652;13.128;2023-04-19T00:08:35;11.87;;;5.33;;
5543;SDS011;2795;47.652;13.128;2023-04-19T00:11:02;12.70;;;5.50;;
5543;SDS011;2795;47.652;13.128;2023-04-19T00:13:29;11.60;;;5.10;;
5543;SDS011;2795;47.652;13.128;2023-04-19T00:15:55;10.53;;;5.33;;
5543;SDS011;2795;47.652;13.128;2023-04-19T00:18:22;11.30;;;5.33;;
5543;SDS011;2795;47.652;13.128;2023-04-19T00:20:48;9.70;;;5.20;;
5543;SDS011;2795;47.652;13.128;2023-04-19T00:23:15;9.67;;;5.10;;
5543;SDS011;2795;47.652;13.128;2023-04-19T00:25:42;11.70;;;5.43;;
5543;SDS011;2795;47.652;13.128;2023-04-19T00:28:11;12.63;;;5.30;;
5543;SDS011;2795;47.652;13.128;2023-04-19T00:30:37;10.20;;;5.00;;
5543;SDS011;2795;47.652;13.128;2023-04-19T00:33:04;12.87;;;4.87;;
5543;SDS011;2795;47.652;13.128;2023-04-19T00:35:31;9.60;;;4.53;;
5543;SDS011;2795;47.652;13.128;2023-04-19T00:37:57;10.10;;;4.93;;
5543;SDS011;2795;47.652;13.128;2023-04-19T00:40:24;10.93;;;5.10;;
5543;SDS011;2795;47.652;13.128;2023-04-19T00:42:51;12.00;;;5.53;;
5543;SDS011;2795;47.652;13.128;2023-04-19T00:45:17;9.93;;;5.00;;
5543;SDS011;2795;47.652;13.128;2023-04-19T00:47:44;16.23;;;5.50;;
5543;SDS011;2795;47.652;13.128;2023-04-19T00:50:11;11.80;;;4.63;;
5543;SDS011;2795;47.652;13.128;2023-04-19T00:52:37;18.07;;;5.43;;
5543;SDS011;2795;47.652;13.128;2023-04-19T00:55:05;10.37;;;4.43;;
5543;SDS011;2795;47.652;13.128;2023-04-19T00:57:32;9.07;;;4.23;;
5543;SDS011;2795;47.652;13.128;2023-04-19T00:59:58;5.17;;;2.80;;
5543;SDS011;2795;47.652;13.128;2023-04-19T01:02:25;10.53;;;3.57;;
5543;SDS011;2795;47.652;13.128;2023-04-19T01:07:28;8.03;;;3.40;;
5543;SDS011;2795;47.652;13.128;2023-04-19T01:09:54;14.70;;;4.20;;
5543;SDS011;2795;47.652;13.128;2023-04-19T01:12:21;9.70;;;3.93;;
5543;SDS011;2795;47.652;13.128;2023-04-19T01:14:48;5.60;;;2.70;;
5543;SDS011;2795;47.652;13.128;2023-04-19T01:17:15;8.30;;;2.90;;
5543;SDS011;2795;47.652;13.128;2023-04-19T01:19:44;11.83;;;2.90;;
5543;SDS011;2795;47.652;13.128;2023-04-19T01:22:19;8.17;;;2.90;;
5543;SDS011;2795;47.652;13.128;2023-04-19T01:24:46;9.73;;;2.90;;
5543;SDS011;2795;47.652;13.128;2023-04-19T01:27:13;7.53;;;2.90;;
5543;SDS011;2795;47.652;13.128;2023-04-19T01:29:42;10.00;;;3.13;;
5543;SDS011;2795;47.652;13.128;2023-04-19T01:32:08;9.20;;;2.90;;
5543;SDS011;2795;47.652;13.128;2023-04-19T01:34:35;10.87;;;3.20;;
5543;SDS011;2795;47.652;13.128;2023-04-19T01:37:02;18.80;;;4.17;;
5543;SDS011;2795;47.652;13.128;2023-04-19T01:39:28;6.90;;;3.10;;
5543;SDS011;2795;47.652;13.128;2023-04-19T01:41:55;9.50;;;3.50;;
5543;SDS011;2795;47.652;13.128;2023-04-19T01:44:22;8.73;;;3.47;;
5543;SDS011;2795;47.652;13.128;2023-04-19T01:46:48;8.50;;;3.40;;
5543;SDS011;2795;47.652;13.128;2023-04-19T01:49:15;10.30;;;3.27;;
5543;SDS011;2795;47.652;13.128;2023-04-19T01:51:42;10.50;;;3.93;;
5543;SDS011;2795;47.652;13.128;2023-04-19T01:54:09;9.90;;;3.23;;
5543;SDS011;2795;47.652;13.128;2023-04-19T01:56:35;12.57;;;3.67;;
5543;SDS011;2795;47.652;13.128;2023-04-19T01:59:02;7.50;;;3.10;;
5543;SDS011;2795;47.652;13.128;2023-04-19T02:01:29;12.27;;;3.90;;
5543;SDS011;2795;47.652;13.128;2023-04-19T02:03:56;11.30;;;3.00;;
5543;SDS011;2795;47.652;13.128;2023-04-19T02:06:23;7.10;;;3.17;;
5543;SDS011;2795;47.652;13.128;2023-04-19T02:08:49;7.50;;;3.23;;
5543;SDS011;2795;47.652;13.128;2023-04-19T02:11:17;14.83;;;3.60;;
5543;SDS011;2795;47.652;13.128;2023-04-19T02:13:44;8.40;;;3.10;;
5543;SDS011;2795;47.652;13.128;2023-04-19T02:16:10;7.40;;;3.30;;
5543;SDS011;2795;47.652;13.128;2023-04-19T02:18:37;7.03;;;3.17;;
5543;SDS011;2795;47.652;13.128;2023-04-19T02:21:05;6.20;;;3.20;;
5543;SDS011;2795;47.652;13.128;2023-04-19T02:23:32;7.70;;;3.10;;
5543;SDS011;2795;47.652;13.128;2023-04-19T02:25:59;10.43;;;3.47;;
5543;SDS011;2795;47.652;13.128;2023-04-19T02:28:31;9.80;;;3.60;;
5543;SDS011;2795;47.652;13.128;2023-04-19T02:30:58;5.93;;;3.10;;
5543;SDS011;2795;47.652;13.128;2023-04-19T02:33:29;7.00;;;2.77;;
5543;SDS011;2795;47.652;13.128;2023-04-19T02:35:56;8.97;;;3.17;;
5543;SDS011;2795;47.652;13.128;2023-04-19T02:38:22;6.87;;;2.90;;
5543;SDS011;2795;47.652;13.128;2023-04-19T02:40:49;8.03;;;3.13;;
5543;SDS011;2795;47.652;13.128;2023-04-19T02:43:16;9.50;;;3.70;;
5543;SDS011;2795;47.652;13.128;2023-04-19T02:45:42;10.90;;;3.97;;
5543;SDS011;2795;47.652;13.128;2023-04-19T02:48:09;7.93;;;3.67;;
5543;SDS011;2795;47.652;13.128;2023-04-19T02:50:36;13.53;;;4.50;;
5543;SDS011;2795;47.652;13.128;2023-04-19T02:53:03;15.77;;;4.50;;
5543;SDS011;2795;47.652;13.128;2023-04-19T02:55:30;11.17;;;4.60;;
5543;SDS011;2795;47.652;13.128;2023-04-19T02:57:57;8.30;;;4.80;;
5543;SDS011;2795;47.652;13.128;2023-04-19T03:00:23;7.03;;;4.40;;
5543;SDS011;2795;47.652;13.128;2023-04-19T03:02:50;16.03;;;5.17;;
5543;SDS011;2795;47.652;13.128;2023-04-19T03:05:17;11.67;;;4.57;;
5543;SDS011;2795;47.652;13.128;2023-04-19T03:07:44;14.23;;;6.10;;
5543;SDS011;2795;47.652;13.128;2023-04-19T03:10:10;24.33;;;6.87;;
5543;SDS011;2795;47.652;13.128;2023-04-19T03:12:37;10.17;;;5.70;;
5543;SDS011;2795;47.652;13.128;2023-04-19T03:15:04;12.13;;;5.73;;
5543;SDS011;2795;47.652;13.128;2023-04-19T03:17:31;17.40;;;5.93;;
5543;SDS011;2795;47.652;13.128;2023-04-19T03:19:58;11.60;;;5.63;;
5543;SDS011;2795;47.652;13.128;2023-04-19T03:22:24;17.03;;;7.00;;
5543;SDS011;2795;47.652;13.128;2023-04-19T03:24:51;15.90;;;7.00;;
5543;SDS011;2795;47.652;13.128;2023-04-19T03:27:18;15.03;;;7.33;;
5543;SDS011;2795;47.652;13.128;2023-04-19T03:29:44;17.37;;;7.23;;
5543;SDS011;2795;47.652;13.128;2023-04-19T03:32:14;17.40;;;6.87;;
5543;SDS011;2795;47.652;13.128;2023-04-19T03:34:41;16.10;;;7.07;;
5543;SDS011;2795;47.652;13.128;2023-04-19T03:37:07;20.53;;;7.23;;
5543;SDS011;2795;47.652;13.128;2023-04-19T03:39:34;18.67;;;7.03;;
5543;SDS011;2795;47.652;13.128;2023-04-19T03:42:01;12.47;;;6.30;;
5543;SDS011;2795;47.652;13.128;2023-04-19T03:44:30;13.13;;;6.37;;
5543;SDS011;2795;47.652;13.128;2023-04-19T03:46:57;13.50;;;5.90;;
5543;SDS011;2795;47.652;13.128;2023-04-19T03:49:24;13.07;;;5.70;;
5543;SDS011;2795;47.652;13.128;2023-04-19T03:51:51;14.43;;;5.93;;
5543;SDS011;2795;47.652;13.128;2023-04-19T03:54:18;13.77;;;5.83;;
5543;SDS011;2795;47.652;13.128;2023-04-19T03:56:44;15.57;;;5.80;;
5543;SDS011;2795;47.652;13.128;2023-04-19T03:59:11;18.33;;;6.50;;
5543;SDS011;2795;47.652;13.128;2023-04-19T04:01:38;16.43;;;5.97;;
5543;SDS011;2795;47.652;13.128;2023-04-19T04:04:07;13.30;;;5.40;;
5543;SDS011;2795;47.652;13.128;2023-04-19T04:06:34;13.23;;;5.40;;
5543;SDS011;2795;47.652;13.128;2023-04-19T04:09:01;14.77;;;6.80;;
5543;SDS011;2795;47.652;13.128;2023-04-19T04:11:28;12.60;;;6.20;;
5543;SDS011;2795;47.652;13.128;2023-04-19T04:13:55;21.03;;;6.73;;
5543;SDS011;2795;47.652;13.128;2023-04-19T04:16:21;12.93;;;5.20;;
5543;SDS011;2795;47.652;13.128;2023-04-19T04:18:48;13.57;;;4.60;;
5543;SDS011;2795;47.652;13.128;2023-04-19T04:21:14;12.13;;;3.80;;
5543;SDS011;2795;47.652;13.128;2023-04-19T04:23:41;6.40;;;3.20;;
5543;SDS011;2795;47.652;13.128;2023-04-19T04:26:08;6.53;;;2.90;;
5543;SDS011;2795;47.652;13.128;2023-04-19T04:28:35;8.20;;;3.00;;
5543;SDS011;2795;47.652;13.128;2023-04-19T04:31:01;8.53;;;3.00;;
5543;SDS011;2795;47.652;13.128;2023-04-19T04:33:28;6.40;;;2.90;;
5543;SDS011;2795;47.652;13.128;2023-04-19T04:35:55;14.53;;;4.10;;
5543;SDS011;2795;47.652;13.128;2023-04-19T04:38:23;13.77;;;3.50;;
5543;SDS011;2795;47.652;13.128;2023-04-19T04:40:53;13.60;;;3.87;;
5543;SDS011;2795;47.652;13.128;2023-04-19T04:43:21;11.20;;;4.17;;
5543;SDS011;2795;47.652;13.128;2023-04-19T04:45:48;17.33;;;5.30;;
5543;SDS011;2795;47.652;13.128;2023-04-19T04:48:15;13.37;;;5.17;;
5543;SDS011;2795;47.652;13.128;2023-04-19T04:50:42;13.50;;;5.50;;
5543;SDS011;2795;47.652;13.128;2023-04-19T04:53:09;9.20;;;4.50;;
5543;SDS011;2795;47.652;13.128;2023-04-19T04:55:38;14.70;;;5.50;;
5543;SDS011;2795;47.652;13.128;2023-04-19T04:58:05;12.77;;;5.83;;
5543;SDS011;2795;47.652;13.128;2023-04-19T05:00:32;16.30;;;6.53;;
5543;SDS011;2795;47.652;13.128;2023-04-19T05:02:59;10.73;;;5.53;;
5543;SDS011;2795;47.652;13.128;2023-04-19T05:05:27;17.57;;;6.53;;
5543;SDS011;2795;47.652;13.128;2023-04-19T05:07:54;18.90;;;6.47;;
5543;SDS011;2795;47.652;13.128;2023-04-19T05:10:20;25.77;;;7.87;;
5543;SDS011;2795;47.652;13.128;2023-04-19T05:12:47;19.20;;;6.53;;
5543;SDS011;2795;47.652;13.128;2023-04-19T05:15:14;25.90;;;8.50;;
5543;SDS011;2795;47.652;13.128;2023-04-19T05:17:41;19.27;;;7.50;;
5543;SDS011;2795;47.652;13.128;2023-04-19T05:20:08;14.63;;;6.77;;
5543;SDS011;2795;47.652;13.128;2023-04-19T05:22:35;20.40;;;7.70;;
5543;SDS011;2795;47.652;13.128;2023-04-19T05:25:02;13.73;;;6.60;;
5543;SDS011;2795;47.652;13.128;2023-04-19T05:27:29;17.13;;;7.30;;
5543;SDS011;2795;47.652;13.128;2023-04-19T05:29:56;20.60;;;8.73;;
5543;SDS011;2795;47.652;13.128;2023-04-19T05:32:22;20.80;;;7.60;;
5543;SDS011;2795;47.652;13.128;2023-04-19T05:34:49;20.07;;;7.97;;
5543;SDS011;2795;47.652;13.128;2023-04-19T05:37:16;14.50;;;7.47;;
5543;SDS011;2795;47.652;13.128;2023-04-19T05:39:42;21.63;;;8.90;;
5543;SDS011;2795;47.652;13.128;2023-04-19T05:42:10;20.43;;;8.50;;
5543;SDS011;2795;47.652;13.128;2023-04-19T05:44:36;21.63;;;8.80;;
5543;SDS011;2795;47.652;13.128;2023-04-19T05:47:03;20.27;;;8.80;;
5543;SDS011;2795;47.652;13.128;2023-04-19T05:49:30;19.13;;;9.07;;
5543;SDS011;2795;47.652;13.128;2023-04-19T05:51:56;19.50;;;8.27;;
5543;SDS011;2795;47.652;13.128;2023-04-19T05:54:23;19.40;;;8.33;;
5543;SDS011;2795;47.652;13.128;2023-04-19T05:56:49;23.70;;;9.70;;
5543;SDS011;2795;47.652;13.128;2023-04-19T05:59:16;23.90;;;8.70;;
5543;SDS011;2795;47.652;13.128;2023-04-19T06:01:43;18.07;;;7.83;;
5543;SDS011;2795;47.652;13.128;2023-04-19T06:04:09;18.90;;;7.87;;
5543;SDS011;2795;47.652;13.128;2023-04-19T06:06:36;19.30;;;8.63;;
5543;SDS011;2795;47.652;13.128;2023-04-19T06:09:03;17.53;;;8.77;;
5543;SDS011;2795;47.652;13.128;2023-04-19T06:11:30;23.83;;;8.70;;
5543;SDS011;2795;47.652;13.128;2023-04-19T06:14:12;20.73;;;8.50;;
5543;SDS011;2795;47.652;13.128;2023-04-19T06:16:40;24.90;;;8.90;;
5543;SDS011;2795;47.652;13.128;2023-04-19T06:19:07;20.30;;;7.70;;
5543;SDS011;2795;47.652;13.128;2023-04-19T06:21:33;17.93;;;7.70;;
5543;SDS011;2795;47.652;13.128;2023-04-19T06:24:00;20.83;;;9.00;;
5543;SDS011;2795;47.652;13.128;2023-04-19T06:26:27;21.97;;;8.67;;
5543;SDS011;2795;47.652;13.128;2023-04-19T06:28:53;21.00;;;8.63;;
5543;SDS011;2795;47.652;13.128;2023-04-19T06:31:20;29.83;;;10.17;;
5543;SDS011;2795;47.652;13.128;2023-04-19T06:33:46;18.80;;;8.60;;
5543;SDS011;2795;47.652;13.128;2023-04-19T06:36:13;18.90;;;9.37;;
5543;SDS011;2795;47.652;13.128;2023-04-19T06:38:40;23.70;;;13.07;;
5543;SDS011;2795;47.652;13.128;2023-04-19T06:41:07;26.47;;;11.43;;
5543;SDS011;2795;47.652;13.128;2023-04-19T06:43:34;27.10;;;10.40;;
5543;SDS011;2795;47.652;13.128;2023-04-19T06:46:01;29.13;;;15.53;;
5543;SDS011;2795;47.652;13.128;2023-04-19T06:48:29;28.40;;;13.10;;
5543;SDS011;2795;47.652;13.128;2023-04-19T06:50:56;24.33;;;12.07;;
5543;SDS011;2795;47.652;13.128;2023-04-19T06:53:23;25.00;;;12.53;;
5543;SDS011;2795;47.652;13.128;2023-04-19T06:55:56;25.60;;;9.67;;
5543;SDS011;2795;47.652;13.128;2023-04-19T06:58:27;24.83;;;10.20;;
5543;SDS011;2795;47.652;13.128;2023-04-19T07:00:54;21.60;;;9.43;;
5543;SDS011;2795;47.652;13.128;2023-04-19T07:03:21;25.80;;;10.03;;
5543;SDS011;2795;47.652;13.128;2023-04-19T07:05:48;23.03;;;10.77;;
5543;SDS011;2795;47.652;13.128;2023-04-19T07:08:15;22.10;;;11.23;;
5543;SDS011;2795;47.652;13.128;2023-04-19T07:10:41;20.23;;;10.10;;
5543;SDS011;2795;47.652;13.128;2023-04-19T07:13:11;26.13;;;11.80;;
5543;SDS011;2795;47.652;13.128;2023-04-19T07:15:38;24.73;;;11.37;;
5543;SDS011;2795;47.652;13.128;2023-04-19T07:18:05;21.13;;;9.97;;
5543;SDS011;2795;47.652;13.128;2023-04-19T07:20:32;19.37;;;8.90;;
5543;SDS011;2795;47.652;13.128;2023-04-19T07:22:59;29.93;;;11.83;;
5543;SDS011;2795;47.652;13.128;2023-04-19T07:25:26;24.10;;;9.70;;
5543;SDS011;2795;47.652;13.128;2023-04-19T07:27:53;31.37;;;10.50;;
5543;SDS011;2795;47.652;13.128;2023-04-19T07:30:20;26.83;;;8.73;;
5543;SDS011;2795;47.652;13.128;2023-04-19T07:32:47;17.63;;;7.80;;
5543;SDS011;2795;47.652;13.128;2023-04-19T07:35:16;17.13;;;7.03;;
5543;SDS011;2795;47.652;13.128;2023-04-19T07:37:44;18.00;;;7.93;;
5543;SDS011;2795;47.652;13.128;2023-04-19T07:40:11;12.97;;;6.70;;
5543;SDS011;2795;47.652;13.128;2023-04-19T07:42:38;19.77;;;8.30;;
5543;SDS011;2795;47.652;13.128;2023-04-19T07:45:05;21.63;;;8.97;;
5543;SDS011;2795;47.652;13.128;2023-04-19T07:47:32;18.37;;;8.73;;
5543;SDS011;2795;47.652;13.128;2023-04-19T07:49:59;20.67;;;9.47;;
5543;SDS011;2795;47.652;13.128;2023-04-19T07:52:26;22.93;;;9.23;;
5543;SDS011;2795;47.652;13.128;2023-04-19T07:54:52;29.60;;;9.70;;
5543;SDS011;2795;47.652;13.128;2023-04-19T07:57:19;29.70;;;10.20;;
5543;SDS011;2795;47.652;13.128;2023-04-19T07:59:46;18.30;;;8.57;;
5543;SDS011;2795;47.652;13.128;2023-04-19T08:02:12;21.40;;;9.10;;
5543;SDS011;2795;47.652;13.128;2023-04-19T08:04:39;21.53;;;9.13;;
5543;SDS011;2795;47.652;13.128;2023-04-19T08:07:06;17.73;;;8.53;;
5543;SDS011;2795;47.652;13.128;2023-04-19T08:09:34;19.53;;;7.97;;
5543;SDS011;2795;47.652;13.128;2023-04-19T08:12:03;17.90;;;8.03;;
5543;SDS011;2795;47.652;13.128;2023-04-19T08:14:29;19.93;;;8.40;;
5543;SDS011;2795;47.652;13.128;2023-04-19T08:17:13;21.20;;;8.10;;
5543;SDS011;2795;47.652;13.128;2023-04-19T08:19:44;22.20;;;9.03;;
5543;SDS011;2795;47.652;13.128;2023-04-19T08:22:11;19.90;;;8.13;;
5543;SDS011;2795;47.652;13.128;2023-04-19T08:24:37;15.53;;;8.13;;
5543;SDS011;2795;47.652;13.128;2023-04-19T08:27:04;18.40;;;8.07;;
5543;SDS011;2795;47.652;13.128;2023-04-19T08:29:31;22.23;;;9.30;;
5543;SDS011;2795;47.652;13.128;2023-04-19T08:31:58;23.27;;;9.50;;
5543;SDS011;2795;47.652;13.128;2023-04-19T08:34:27;22.83;;;8.57;;
5543;SDS011;2795;47.652;13.128;2023-04-19T08:36:53;22.33;;;8.50;;
5543;SDS011;2795;47.652;13.128;2023-04-19T08:39:30;23.67;;;10.03;;
5543;SDS011;2795;47.652;13.128;2023-04-19T08:42:08;20.50;;;8.23;;
5543;SDS011;2795;47.652;13.128;2023-04-19T08:44:55;24.77;;;9.40;;
5543;SDS011;2795;47.652;13.128;2023-04-19T08:47:43;15.40;;;8.10;;
5543;SDS011;2795;47.652;13.128;2023-04-19T08:50:25;21.00;;;9.30;;
5543;SDS011;2795;47.652;13.128;2023-04-19T08:53:03;17.70;;;8.50;;
5543;SDS011;2795;47.652;13.128;2023-04-19T08:55:49;19.90;;;8.50;;
5543;SDS011;2795;47.652;13.128;2023-04-19T08:58:36;32.53;;;10.97;;
5543;SDS011;2795;47.652;13.128;2023-04-19T09:01:22;15.87;;;8.80;;
5543;SDS011;2795;47.652;13.128;2023-04-19T09:04:01;19.17;;;9.10;;
5543;SDS011;2795;47.652;13.128;2023-04-19T09:06:46;17.60;;;10.73;;
5543;SDS011;2795;47.652;13.128;2023-04-19T09:12:14;15.63;;;9.03;;
5543;SDS011;2795;47.652;13.128;2023-04-19T09:14:46;23.60;;;9.20;;
5543;SDS011;2795;47.652;13.128;2023-04-19T09:17:16;23.83;;;9.83;;
5543;SDS011;2795;47.652;13.128;2023-04-19T09:19:49;21.73;;;8.97;;
5543;SDS011;2795;47.652;13.128;2023-04-19T09:22:16;21.20;;;10.03;;
5543;SDS011;2795;47.652;13.128;2023-04-19T09:24:43;18.27;;;8.83;;
5543;SDS011;2795;47.652;13.128;2023-04-19T09:27:18;20.73;;;9.93;;
5543;SDS011;2795;47.652;13.128;2023-04-19T09:29:52;28.60;;;10.60;;
5543;SDS011;2795;47.652;13.128;2023-04-19T09:32:23;18.13;;;9.40;;
5543;SDS011;2795;47.652;13.128;2023-04-19T09:34:54;17.90;;;9.87;;
5543;SDS011;2795;47.652;13.128;2023-04-19T09:37:22;23.53;;;9.40;;
5543;SDS011;2795;47.652;13.128;2023-04-19T09:39:52;24.43;;;9.00;;
5543;SDS011;2795;47.652;13.128;2023-04-19T09:42:19;20.10;;;8.73;;
5543;SDS011;2795;47.652;13.128;2023-04-19T09:45:06;18.53;;;8.50;;
5543;SDS011;2795;47.652;13.128;2023-04-19T09:47:36;23.07;;;9.30;;
5543;SDS011;2795;47.652;13.128;2023-04-19T09:50:03;24.50;;;9.37;;
5543;SDS011;2795;47.652;13.128;2023-04-19T09:52:47;20.97;;;9.10;;
5543;SDS011;2795;47.652;13.128;2023-04-19T09:55:14;17.20;;;9.03;;
5543;SDS011;2795;47.652;13.128;2023-04-19T09:57:53;19.20;;;8.47;;
5543;SDS011;2795;47.652;13.128;2023-04-19T10:00:21;15.77;;;7.60;;
5543;SDS011;2795;47.652;13.128;2023-04-19T10:02:50;22.97;;;9.80;;
5543;SDS011;2795;47.652;13.128;2023-04-19T10:05:23;17.93;;;9.30;;
5543;SDS011;2795;47.652;13.128;2023-04-19T10:07:52;24.40;;;9.07;;
5543;SDS011;2795;47.652;13.128;2023-04-19T10:10:25;17.20;;;7.57;;
5543;SDS011;2795;47.652;13.128;2023-04-19T10:13:10;34.80;;;13.40;;
5543;SDS011;2795;47.652;13.128;2023-04-19T10:15:41;52.50;;;22.50;;
5543;SDS011;2795;47.652;13.128;2023-04-19T10:18:18;18.70;;;9.13;;
5543;SDS011;2795;47.652;13.128;2023-04-19T10:20:46;20.93;;;8.97;;
5543;SDS011;2795;47.652;13.128;2023-04-19T10:23:15;23.67;;;10.77;;
5543;SDS011;2795;47.652;13.128;2023-04-19T10:25:44;23.50;;;11.27;;
5543;SDS011;2795;47.652;13.128;2023-04-19T10:28:12;23.13;;;10.17;;
5543;SDS011;2795;47.652;13.128;2023-04-19T10:30:58;25.23;;;9.50;;
5543;SDS011;2795;47.652;13.128;2023-04-19T10:33:28;24.93;;;10.07;;
5543;SDS011;2795;47.652;13.128;2023-04-19T10:35:57;21.90;;;9.43;;
5543;SDS011;2795;47.652;13.128;2023-04-19T10:41:09;31.33;;;12.03;;
5543;SDS011;2795;47.652;13.128;2023-04-19T10:49:02;22.70;;;9.13;;
5543;SDS011;2795;47.652;13.128;2023-04-19T10:51:36;20.90;;;10.43;;
5543;SDS011;2795;47.652;13.128;2023-04-19T10:57:07;29.03;;;13.23;;
5543;SDS011;2795;47.652;13.128;2023-04-19T10:59:38;19.40;;;8.80;;
5543;SDS011;2795;47.652;13.128;2023-04-19T11:07:15;16.33;;;9.90;;
5543;SDS011;2795;47.652;13.128;2023-04-19T11:09:44;21.00;;;11.73;;
5543;SDS011;2795;47.652;13.128;2023-04-19T11:12:12;26.43;;;10.60;;
5543;SDS011;2795;47.652;13.128;2023-04-19T11:17:16;19.77;;;9.67;;
5543;SDS011;2795;47.652;13.128;2023-04-19T11:20:05;18.47;;;8.47;;
5543;SDS011;2795;47.652;13.128;2023-04-19T11:22:39;29.60;;;10.50;;
5543;SDS011;2795;47.652;13.128;2023-04-19T11:25:13;27.37;;;11.87;;
5543;SDS011;2795;47.652;13.128;2023-04-19T11:27:45;23.37;;;10.17;;
5543;SDS011;2795;47.652;13.128;2023-04-19T11:30:17;22.60;;;10.30;;
5543;SDS011;2795;47.652;13.128;2023-04-19T11:32:52;22.77;;;9.53;;
5543;SDS011;2795;47.652;13.128;2023-04-19T11:35:24;21.80;;;10.57;;
5543;SDS011;2795;47.652;13.128;2023-04-19T11:37:52;22.00;;;10.07;;
5543;SDS011;2795;47.652;13.128;2023-04-19T11:40:19;19.70;;;9.03;;
5543;SDS011;2795;47.652;13.128;2023-04-19T11:42:57;17.57;;;8.70;;
5543;SDS011;2795;47.652;13.128;2023-04-19T11:45:28;21.50;;;8.90;;
5543;SDS011;2795;47.652;13.128;2023-04-19T11:48:01;23.23;;;9.50;;
5543;SDS011;2795;47.652;13.128;2023-04-19T11:50:37;25.30;;;10.03;;
5543;SDS011;2795;47.652;13.128;2023-04-19T11:53:15;30.50;;;15.90;;
5543;SDS011;2795;47.652;13.128;2023-04-19T11:55:49;21.43;;;9.30;;
5543;SDS011;2795;47.652;13.128;2023-04-19T11:58:31;14.97;;;8.47;;
5543;SDS011;2795;47.652;13.128;2023-04-19T12:01:08;20.93;;;8.83;;
5543;SDS011;2795;47.652;13.128;2023-04-19T12:03:49;33.33;;;16.03;;
5543;SDS011;2795;47.652;13.128;2023-04-19T12:06:18;21.20;;;11.50;;
5543;SDS011;2795;47.652;13.128;2023-04-19T12:08:49;19.73;;;9.40;;
5543;SDS011;2795;47.652;13.128;2023-04-19T12:11:17;23.97;;;12.30;;
5543;SDS011;2795;47.652;13.128;2023-04-19T12:13:45;18.50;;;9.63;;
5543;SDS011;2795;47.652;13.128;2023-04-19T12:16:11;19.57;;;9.53;;
5543;SDS011;2795;47.652;13.128;2023-04-19T12:18:48;17.73;;;7.63;;
5543;SDS011;2795;47.652;13.128;2023-04-19T12:21:25;23.87;;;9.13;;
5543;SDS011;2795;47.652;13.128;2023-04-19T12:23:58;25.73;;;9.40;;
5543;SDS011;2795;47.652;13.128;2023-04-19T12:26:26;21.07;;;9.67;;
5543;SDS011;2795;47.652;13.128;2023-04-19T12:28:54;20.33;;;10.63;;
5543;SDS011;2795;47.652;13.128;2023-04-19T12:31:21;20.90;;;10.53;;
5543;SDS011;2795;47.652;13.128;2023-04-19T12:33:48;19.17;;;10.67;;
5543;SDS011;2795;47.652;13.128;2023-04-19T12:36:15;23.40;;;9.87;;
5543;SDS011;2795;47.652;13.128;2023-04-19T12:38:41;22.73;;;10.10;;
5543;SDS011;2795;47.652;13.128;2023-04-19T12:41:08;21.67;;;10.70;;
5543;SDS011;2795;47.652;13.128;2023-04-19T12:43:35;32.27;;;12.40;;
5543;SDS011;2795;47.652;13.128;2023-04-19T12:46:03;25.10;;;10.20;;
5543;SDS011;2795;47.652;13.128;2023-04-19T12:48:33;23.27;;;10.47;;
5543;SDS011;2795;47.652;13.128;2023-04-19T12:50:59;25.50;;;11.53;;
5543;SDS011;2795;47.652;13.128;2023-04-19T12:53:26;46.43;;;16.10;;
5543;SDS011;2795;47.652;13.128;2023-04-19T12:55:53;37.30;;;15.47;;
5543;SDS011;2795;47.652;13.128;2023-04-19T12:58:19;49.77;;;16.90;;
5543;SDS011;2795;47.652;13.128;2023-04-19T13:00:46;28.63;;;10.90;;
5543;SDS011;2795;47.652;13.128;2023-04-19T13:03:13;39.83;;;15.20;;
5543;SDS011;2795;47.652;13.128;2023-04-19T13:05:40;48.77;;;16.20;;
5543;SDS011;2795;47.652;13.128;2023-04-19T13:08:06;44.57;;;13.50;;
5543;SDS011;2795;47.652;13.128;2023-04-19T13:10:33;25.47;;;10.40;;
5543;SDS011;2795;47.652;13.128;2023-04-19T13:12:59;20.23;;;9.87;;
5543;SDS011;2795;47.652;13.128;2023-04-19T13:15:26;25.13;;;10.23;;
5543;SDS011;2795;47.652;13.128;2023-04-19T13:17:54;25.77;;;12.20;;
5543;SDS011;2795;47.652;13.128;2023-04-19T13:20:21;26.50;;;11.03;;
5543;SDS011;2795;47.652;13.128;2023-04-19T13:22:47;29.23;;;11.97;;
5543;SDS011;2795;47.652;13.128;2023-04-19T13:25:14;20.23;;;10.17;;
5543;SDS011;2795;47.652;13.128;2023-04-19T13:27:41;25.30;;;10.70;;
5543;SDS011;2795;47.652;13.128;2023-04-19T13:30:08;22.80;;;9.97;;
5543;SDS011;2795;47.652;13.128;2023-04-19T13:32:35;21.80;;;9.83;;
5543;SDS011;2795;47.652;13.128;2023-04-19T13:35:01;19.17;;;9.33;;
5543;SDS011;2795;47.652;13.128;2023-04-19T13:37:28;28.67;;;11.43;;
5543;SDS011;2795;47.652;13.128;2023-04-19T13:39:55;23.07;;;12.00;;
5543;SDS011;2795;47.652;13.128;2023-04-19T13:42:36;20.90;;;9.73;;
5543;SDS011;2795;47.652;13.128;2023-04-19T13:45:02;22.40;;;9.43;;
5543;SDS011;2795;47.652;13.128;2023-04-19T13:47:29;29.77;;;11.37;;
5543;SDS011;2795;47.652;13.128;2023-04-19T13:49:56;31.30;;;10.83;;
5543;SDS011;2795;47.652;13.128;2023-04-19T13:52:23;21.63;;;10.20;;
5543;SDS011;2795;47.652;13.128;2023-04-19T13:54:49;22.90;;;10.00;;
5543;SDS011;2795;47.652;13.128;2023-04-19T13:57:16;25.20;;;10.73;;
5543;SDS011;2795;47.652;13.128;2023-04-19T13:59:43;31.87;;;12.10;;
5543;SDS011;2795;47.652;13.128;2023-04-19T14:02:09;25.73;;;11.17;;
5543;SDS011;2795;47.652;13.128;2023-04-19T14:04:36;27.87;;;10.50;;
5543;SDS011;2795;47.652;13.128;2023-04-19T14:07:03;19.27;;;9.20;;
5543;SDS011;2795;47.652;13.128;2023-04-19T14:09:29;26.23;;;9.90;;
5543;SDS011;2795;47.652;13.128;2023-04-19T14:11:56;20.53;;;8.23;;
5543;SDS011;2795;47.652;13.128;2023-04-19T14:14:23;20.10;;;9.07;;
5543;SDS011;2795;47.652;13.128;2023-04-19T14:16:49;22.17;;;9.23;;
5543;SDS011;2795;47.652;13.128;2023-04-19T14:19:16;18.67;;;7.90;;
5543;SDS011;2795;47.652;13.128;2023-04-19T14:21:43;24.53;;;10.13;;
5543;SDS011;2795;47.652;13.128;2023-04-19T14:24:10;19.27;;;8.03;;
5543;SDS011;2795;47.652;13.128;2023-04-19T14:26:36;30.83;;;10.40;;
5543;SDS011;2795;47.652;13.128;2023-04-19T14:29:03;21.77;;;9.40;;
5543;SDS011;2795;47.652;13.128;2023-04-19T14:31:29;19.63;;;7.50;;
5543;SDS011;2795;47.652;13.128;2023-04-19T14:33:56;17.87;;;8.10;;
5543;SDS011;2795;47.652;13.128;2023-04-19T14:36:25;21.93;;;8.80;;
5543;SDS011;2795;47.652;13.128;2023-04-19T14:38:52;17.23;;;7.50;;
5543;SDS011;2795;47.652;13.128;2023-04-19T14:41:18;17.83;;;6.73;;
5543;SDS011;2795;47.652;13.128;2023-04-19T14:43:45;22.33;;;8.30;;
5543;SDS011;2795;47.652;13.128;2023-04-19T14:46:12;17.57;;;7.37;;
5543;SDS011;2795;47.652;13.128;2023-04-19T14:48:38;18.60;;;7.37;;
5543;SDS011;2795;47.652;13.128;2023-04-19T14:51:05;18.83;;;7.70;;
5543;SDS011;2795;47.652;13.128;2023-04-19T14:53:31;19.63;;;7.10;;
5543;SDS011;2795;47.652;13.128;2023-04-19T14:56:01;14.57;;;6.27;;
5543;SDS011;2795;47.652;13.128;2023-04-19T14:58:29;14.30;;;6.63;;
5543;SDS011;2795;47.652;13.128;2023-04-19T15:00:55;14.40;;;6.33;;
5543;SDS011;2795;47.652;13.128;2023-04-19T15:03:22;18.30;;;6.17;;
5543;SDS011;2795;47.652;13.128;2023-04-19T15:05:49;14.67;;;5.00;;
5543;SDS011;2795;47.652;13.128;2023-04-19T15:08:16;14.70;;;6.07;;
5543;SDS011;2795;47.652;13.128;2023-04-19T15:10:55;11.10;;;4.60;;
5543;SDS011;2795;47.652;13.128;2023-04-19T15:13:21;17.80;;;5.27;;
5543;SDS011;2795;47.652;13.128;2023-04-19T15:15:48;11.20;;;4.40;;
5543;SDS011;2795;47.652;13.128;2023-04-19T15:18:14;16.63;;;4.80;;